Terminal Aerodrome Forecast
Issued by NWS Detroit/Pontiac, MI

Home | Current Version | Previous Version | Text Only | Print | Product List | Glossary On
Versions: 1 2 3 4 5 6 7 8 9 10 11 12 13 14 15 16 17 18
000
FTUS43 KDTX 121722
TAFFNT
TAF
KFNT 121722Z 1218/1318 30016G28KT P6SM SCT045
     FM130100 28012KT P6SM SCT040
     FM130900 22007KT P6SM BKN035
     FM131400 15007KT 6SM -SN OVC025=

USA.gov is the U.S. government's official web portal to all federal, state and local government web resources and services.